Fontanelle, Nebraska
Current Conditions -  °F | °C
As of 1:15 AM on Friday 31 Oct 2014 (Local Time) from KFET Reporting Station
Overcast Overcast  
Wind Chill: 32°   Ceiling: 2600
Heat Index: 39°   Visibility: 10mi
Dew Point: 28°   Wind: 12mph
Humidity: 64%   Direction: 350°N
Pressure: 30.44"   Gusts: 23mph
Location:  41.5221°N, 96.4999°W
Report Text: KFET 310615Z AUTO 35010G20KT 10SM OVC026 04/M02 A3044 RMK AO2 T00411021
Loading
Personal Weather Stations






























Interactive Weather Map
Tropical Storm Tracking
New forecast layout! Learn more

10-Day Weather Forecast

Advertisements
Track Severe Weather on mobile